Terminal Aerodrome Forecast
Issued by NWS Newport/Morehead City, NC

Home | Current Version | Previous Version | Graphics & Text | Print | Product List | Glossary On
Versions: 1 2 3 4 5 6 7 8 9 10 11 12
000
FTUS42 KMHX 212323
TAFEWN
TAF
KEWN 212323Z 2200/2224 VRB04KT P6SM FEW050
     FM220200 00000KT P6SM FEW250
     FM221600 VRB03KT P6SM FEW050
     FM222200 19007KT P6SM FEW050=

USA.gov is the U.S. government's official web portal to all federal, state and local government web resources and services.